createdAt,value
2018-11-28T00:00:16.825Z,1025.83
2018-11-28T00:01:16.787Z,1025.87
2018-11-28T00:02:16.748Z,1025.83
2018-11-28T00:03:16.709Z,1025.83
2018-11-28T00:04:16.674Z,1025.78
2018-11-28T00:05:16.633Z,1025.76
2018-11-28T00:06:16.597Z,1025.77
2018-11-28T00:07:16.563Z,1025.75
2018-11-28T00:08:16.520Z,1025.73
2018-11-28T00:09:16.481Z,1025.79
2018-11-28T00:10:16.443Z,1025.75
2018-11-28T00:11:16.407Z,1025.76
2018-11-28T00:12:16.372Z,1025.79
2018-11-28T00:13:16.329Z,1025.78
2018-11-28T00:14:16.293Z,1025.83
2018-11-28T00:15:16.255Z,1025.85
2018-11-28T00:16:16.216Z,1025.86
2018-11-28T00:17:16.178Z,1025.85
2018-11-28T00:18:16.140Z,1025.83
2018-11-28T00:19:16.102Z,1025.86
2018-11-28T00:20:16.067Z,1025.83
2018-11-28T00:21:16.024Z,1025.84
2018-11-28T00:22:15.986Z,1025.89
2018-11-28T00:23:15.949Z,1025.82
2018-11-28T00:24:15.911Z,1025.89
2018-11-28T00:25:15.874Z,1025.91
2018-11-28T00:26:15.835Z,1025.89
2018-11-28T00:27:15.797Z,1025.90
2018-11-28T00:28:15.758Z,1025.86
2018-11-28T00:29:15.720Z,1025.89
2018-11-28T00:30:15.680Z,1025.90
2018-11-28T00:31:15.644Z,1025.88
2018-11-28T00:32:15.604Z,1025.85
2018-11-28T00:33:15.566Z,1025.87
2018-11-28T00:34:15.528Z,1025.87
2018-11-28T00:35:15.492Z,1025.90
2018-11-28T00:36:15.452Z,1025.89
2018-11-28T00:37:15.413Z,1025.88
2018-11-28T00:38:15.374Z,1025.89
2018-11-28T00:39:15.336Z,1025.91
2018-11-28T00:40:15.298Z,1025.89
2018-11-28T00:41:15.261Z,1025.93
2018-11-28T00:42:15.221Z,1025.87
2018-11-28T00:43:15.182Z,1025.85
2018-11-28T00:44:15.148Z,1025.87
2018-11-28T00:45:15.105Z,1025.91
2018-11-28T00:46:15.067Z,1025.91
2018-11-28T00:47:15.030Z,1025.92
2018-11-28T00:48:14.993Z,1025.91
2018-11-28T00:49:14.957Z,1025.90
2018-11-28T00:50:14.929Z,1025.88
2018-11-28T00:51:14.874Z,1025.91
2018-11-28T00:52:14.837Z,1025.87
2018-11-28T00:53:14.799Z,1025.85
2018-11-28T00:54:14.759Z,1025.83
2018-11-28T00:55:14.722Z,1025.83
2018-11-28T00:56:14.682Z,1025.85
2018-11-28T00:57:14.643Z,1025.84
2018-11-28T00:58:14.605Z,1025.90
2018-11-28T00:59:14.568Z,1025.86
2018-11-28T01:00:14.530Z,1025.90
2018-11-28T01:01:14.488Z,1025.89
2018-11-28T01:02:14.450Z,1025.87
2018-11-28T01:03:14.414Z,1025.87
2018-11-28T01:04:14.375Z,1025.88
2018-11-28T01:05:14.334Z,1025.90
2018-11-28T01:06:14.298Z,1025.87
2018-11-28T01:07:14.260Z,1025.87
2018-11-28T01:08:14.219Z,1025.91
2018-11-28T01:09:14.180Z,1025.89
2018-11-28T01:10:14.141Z,1025.84
2018-11-28T01:11:14.150Z,1025.89
2018-11-28T01:12:14.065Z,1025.85
2018-11-28T01:13:14.025Z,1025.82
2018-11-28T01:14:13.987Z,1025.83
2018-11-28T01:15:13.949Z,1025.84
2018-11-28T01:16:13.910Z,1025.87
2018-11-28T01:17:13.871Z,1025.89
2018-11-28T01:18:13.834Z,1025.88
2018-11-28T01:19:13.796Z,1025.85
2018-11-28T01:20:13.756Z,1025.87
2018-11-28T01:21:13.717Z,1025.86
2018-11-28T01:22:13.678Z,1025.91
2018-11-28T01:23:13.640Z,1025.93
2018-11-28T01:24:13.600Z,1025.94
2018-11-28T01:25:13.561Z,1025.94
2018-11-28T01:26:13.524Z,1025.97
2018-11-28T01:27:13.485Z,1025.96
2018-11-28T01:28:13.445Z,1025.97
2018-11-28T01:29:13.408Z,1026.01
2018-11-28T01:30:13.366Z,1026.01
2018-11-28T01:31:13.328Z,1026.01
2018-11-28T01:32:13.290Z,1026.04
2018-11-28T01:33:13.251Z,1026.04
2018-11-28T01:34:13.211Z,1026.06
2018-11-28T01:35:13.181Z,1026.07
2018-11-28T01:36:13.134Z,1026.08
2018-11-28T01:37:13.095Z,1026.10
2018-11-28T01:38:13.057Z,1026.09
2018-11-28T01:39:13.017Z,1026.09
2018-11-28T01:40:12.982Z,1026.12
2018-11-28T01:41:12.940Z,1026.16
2018-11-28T01:42:12.907Z,1026.13
2018-11-28T01:43:12.861Z,1026.16
2018-11-28T01:44:12.824Z,1026.15
2018-11-28T01:45:12.784Z,1026.18
2018-11-28T01:46:12.744Z,1026.18
2018-11-28T01:47:12.707Z,1026.12
2018-11-28T01:48:12.671Z,1026.10
2018-11-28T01:49:12.628Z,1026.09
2018-11-28T01:50:12.589Z,1026.07
2018-11-28T01:51:12.551Z,1026.07
2018-11-28T01:52:12.518Z,1026.05
2018-11-28T01:53:12.473Z,1026.03
2018-11-28T01:54:12.435Z,1026.09
2018-11-28T01:55:12.402Z,1026.07
2018-11-28T01:56:12.356Z,1026.08
2018-11-28T01:57:12.316Z,1026.14
2018-11-28T01:58:12.279Z,1026.19
2018-11-28T01:59:12.239Z,1026.19
2018-11-28T02:00:12.203Z,1026.17
2018-11-28T02:01:12.161Z,1026.18
2018-11-28T02:02:12.122Z,1026.19
2018-11-28T02:03:12.084Z,1026.24
2018-11-28T02:04:12.045Z,1026.21
2018-11-28T02:05:12.007Z,1026.23
2018-11-28T02:06:11.966Z,1026.24
2018-11-28T02:07:11.932Z,1026.26
2018-11-28T02:08:11.888Z,1026.25
2018-11-28T02:09:11.849Z,1026.23
2018-11-28T02:10:11.815Z,1026.24
2018-11-28T02:11:11.772Z,1026.22
2018-11-28T02:12:11.735Z,1026.20
2018-11-28T02:13:11.694Z,1026.19
2018-11-28T02:14:11.654Z,1026.23
2018-11-28T02:15:11.616Z,1026.18
2018-11-28T02:16:11.582Z,1026.18
2018-11-28T02:17:11.539Z,1026.18
2018-11-28T02:18:11.498Z,1026.20
2018-11-28T02:19:11.461Z,1026.21
2018-11-28T02:20:11.459Z,1026.21
2018-11-28T02:21:11.382Z,1026.22
2018-11-28T02:22:11.342Z,1026.23
2018-11-28T02:23:11.304Z,1026.25
2018-11-28T02:24:11.266Z,1026.24
2018-11-28T02:25:11.228Z,1026.25
2018-11-28T02:26:11.194Z,1026.19
2018-11-28T02:27:11.149Z,1026.21
2018-11-28T02:28:11.110Z,1026.18
2018-11-28T02:29:11.073Z,1026.21
2018-11-28T02:30:11.032Z,1026.20
2018-11-28T02:31:10.991Z,1026.22
2018-11-28T02:32:10.965Z,1026.25
2018-11-28T02:33:10.914Z,1026.25
2018-11-28T02:34:10.875Z,1026.28
2018-11-28T02:35:10.836Z,1026.31
2018-11-28T02:36:10.797Z,1026.29
2018-11-28T02:37:10.756Z,1026.30
2018-11-28T02:38:10.718Z,1026.28
2018-11-28T02:39:10.681Z,1026.26
2018-11-28T02:40:10.640Z,1026.24
2018-11-28T02:41:10.603Z,1026.25
2018-11-28T02:42:10.561Z,1026.27
2018-11-28T02:43:10.522Z,1026.27
2018-11-28T02:44:10.483Z,1026.30
2018-11-28T02:45:10.445Z,1026.30
2018-11-28T02:46:10.411Z,1026.30
2018-11-28T02:47:10.367Z,1026.26
2018-11-28T02:48:10.329Z,1026.29
2018-11-28T02:49:10.289Z,1026.27
2018-11-28T02:50:10.249Z,1026.25
2018-11-28T02:51:10.212Z,1026.23
2018-11-28T02:52:10.170Z,1026.23
2018-11-28T02:53:10.132Z,1026.20
2018-11-28T02:54:10.094Z,1026.21
2018-11-28T02:55:10.060Z,1026.20
2018-11-28T02:56:10.016Z,1026.18
2018-11-28T02:57:09.975Z,1026.21
2018-11-28T02:58:09.935Z,1026.17
2018-11-28T02:59:09.898Z,1026.18
2018-11-28T03:00:09.857Z,1026.22
2018-11-28T03:01:09.818Z,1026.20
2018-11-28T03:02:09.780Z,1026.22
2018-11-28T03:03:09.741Z,1026.20
2018-11-28T03:04:09.702Z,1026.24
2018-11-28T03:05:09.662Z,1026.21
2018-11-28T03:06:09.622Z,1026.21
2018-11-28T03:07:09.583Z,1026.17
2018-11-28T03:08:09.545Z,1026.18
2018-11-28T03:09:09.505Z,1026.21
2018-11-28T03:10:09.465Z,1026.19
2018-11-28T03:11:09.427Z,1026.24
2018-11-28T03:12:09.387Z,1026.28
2018-11-28T03:13:09.349Z,1026.29
2018-11-28T03:14:09.307Z,1026.28
2018-11-28T03:15:09.269Z,1026.30
2018-11-28T03:16:09.240Z,1026.32
2018-11-28T03:17:09.191Z,1026.31
2018-11-28T03:18:09.151Z,1026.31
2018-11-28T03:19:09.112Z,1026.30
2018-11-28T03:20:09.078Z,1026.27
2018-11-28T03:21:09.034Z,1026.31
2018-11-28T03:22:08.996Z,1026.27
2018-11-28T03:23:08.954Z,1026.25
2018-11-28T03:24:08.916Z,1026.31
2018-11-28T03:25:08.874Z,1026.28
2018-11-28T03:26:08.839Z,1026.32
2018-11-28T03:27:08.798Z,1026.31
2018-11-28T03:28:08.762Z,1026.28
2018-11-28T03:29:08.718Z,1026.26
2018-11-28T03:30:08.680Z,1026.31
2018-11-28T03:31:08.642Z,1026.35
2018-11-28T03:32:08.602Z,1026.34
2018-11-28T03:33:08.563Z,1026.36
2018-11-28T03:34:08.526Z,1026.39
2018-11-28T03:35:08.482Z,1026.39
2018-11-28T03:36:08.444Z,1026.32
2018-11-28T03:37:08.405Z,1026.34
2018-11-28T03:38:08.368Z,1026.33
2018-11-28T03:39:08.325Z,1026.33
2018-11-28T03:40:08.287Z,1026.31
2018-11-28T03:41:08.247Z,1026.34
2018-11-28T03:42:08.209Z,1026.33
2018-11-28T03:43:08.169Z,1026.34
2018-11-28T03:44:08.130Z,1026.35
2018-11-28T03:45:08.088Z,1026.29
2018-11-28T03:46:08.050Z,1026.29
2018-11-28T03:47:08.012Z,1026.26
2018-11-28T03:48:07.972Z,1026.23
2018-11-28T03:49:07.932Z,1026.24
2018-11-28T03:50:07.901Z,1026.22
2018-11-28T03:51:07.853Z,1026.25
2018-11-28T03:52:07.815Z,1026.24
2018-11-28T03:53:07.773Z,1026.26
2018-11-28T03:54:07.734Z,1026.25
2018-11-28T03:55:07.694Z,1026.28
2018-11-28T03:56:07.656Z,1026.23
2018-11-28T03:57:07.619Z,1026.31
2018-11-28T03:58:07.622Z,1026.30
2018-11-28T03:59:07.538Z,1026.34
2018-11-28T04:00:07.500Z,1026.35
2018-11-28T04:01:07.460Z,1026.35
2018-11-28T04:02:07.419Z,1026.35
2018-11-28T04:03:07.378Z,1026.36
2018-11-28T04:04:07.340Z,1026.38
2018-11-28T04:05:07.301Z,1026.35
2018-11-28T04:06:07.261Z,1026.33
2018-11-28T04:07:07.223Z,1026.35
2018-11-28T04:08:07.183Z,1026.38
2018-11-28T04:09:07.144Z,1026.30
2018-11-28T04:10:07.103Z,1026.33
2018-11-28T04:11:07.064Z,1026.32
2018-11-28T04:12:07.025Z,1026.34
2018-11-28T04:13:06.984Z,1026.38
2018-11-28T04:14:06.946Z,1026.41
2018-11-28T04:15:06.906Z,1026.34
2018-11-28T04:16:06.869Z,1026.36
2018-11-28T04:17:06.828Z,1026.38
2018-11-28T04:18:06.788Z,1026.38
2018-11-28T04:19:06.750Z,1026.37
2018-11-28T04:20:06.709Z,1026.36
2018-11-28T04:21:06.674Z,1026.34
2018-11-28T04:22:06.636Z,1026.34
2018-11-28T04:23:06.592Z,1026.31
2018-11-28T04:24:06.554Z,1026.29
2018-11-28T04:25:06.511Z,1026.28
2018-11-28T04:26:06.474Z,1026.30
2018-11-28T04:27:06.435Z,1026.33
2018-11-28T04:28:06.394Z,1026.28
2018-11-28T04:29:06.360Z,1026.34
2018-11-28T04:30:06.317Z,1026.33
2018-11-28T04:31:06.277Z,1026.32
2018-11-28T04:32:06.239Z,1026.30
2018-11-28T04:33:06.197Z,1026.31
2018-11-28T04:34:06.158Z,1026.28
2018-11-28T04:35:06.119Z,1026.34
2018-11-28T04:36:06.082Z,1026.31
2018-11-28T04:37:06.040Z,1026.31
2018-11-28T04:38:06.003Z,1026.28
2018-11-28T04:39:05.963Z,1026.28
2018-11-28T04:40:05.923Z,1026.30
2018-11-28T04:41:05.883Z,1026.28
2018-11-28T04:42:05.858Z,1026.27
2018-11-28T04:43:05.806Z,1026.33
2018-11-28T04:44:05.767Z,1026.34
2018-11-28T04:45:05.725Z,1026.32
2018-11-28T04:46:05.689Z,1026.32
2018-11-28T04:47:05.650Z,1026.34
2018-11-28T04:48:05.610Z,1026.36
2018-11-28T04:49:05.571Z,1026.32
2018-11-28T04:50:05.533Z,1026.31
2018-11-28T04:51:05.496Z,1026.30
2018-11-28T04:52:05.464Z,1026.33
2018-11-28T04:53:05.416Z,1026.35
2018-11-28T04:54:05.381Z,1026.32
2018-11-28T04:55:05.338Z,1026.30
2018-11-28T04:56:05.299Z,1026.34
2018-11-28T04:57:05.259Z,1026.37
2018-11-28T04:58:05.220Z,1026.35
2018-11-28T04:59:05.182Z,1026.35
2018-11-28T05:00:05.142Z,1026.37
2018-11-28T05:01:05.103Z,1026.39
2018-11-28T05:02:05.069Z,1026.36
2018-11-28T05:03:05.039Z,1026.38
2018-11-28T05:04:04.989Z,1026.35
2018-11-28T05:05:04.948Z,1026.36
2018-11-28T05:06:04.912Z,1026.35
2018-11-28T05:07:04.872Z,1026.39
2018-11-28T05:08:04.833Z,1026.38
2018-11-28T05:09:04.795Z,1026.36
2018-11-28T05:10:04.756Z,1026.36
2018-11-28T05:11:04.727Z,1026.41
2018-11-28T05:12:04.679Z,1026.36
2018-11-28T05:13:04.640Z,1026.34
2018-11-28T05:14:04.603Z,1026.35
2018-11-28T05:15:04.563Z,1026.35
2018-11-28T05:16:04.525Z,1026.35
2018-11-28T05:17:04.485Z,1026.33
2018-11-28T05:18:04.457Z,1026.38
2018-11-28T05:19:04.413Z,1026.36
2018-11-28T05:20:04.373Z,1026.41
2018-11-28T05:21:04.332Z,1026.44
2018-11-28T05:22:04.294Z,1026.41
2018-11-28T05:23:04.255Z,1026.44
2018-11-28T05:24:04.218Z,1026.41
2018-11-28T05:25:04.180Z,1026.45
2018-11-28T05:26:04.141Z,1026.41
2018-11-28T05:27:04.103Z,1026.46
2018-11-28T05:28:04.065Z,1026.47
2018-11-28T05:29:04.028Z,1026.45
2018-11-28T05:30:03.987Z,1026.42
2018-11-28T05:31:03.950Z,1026.36
2018-11-28T05:32:03.912Z,1026.39
2018-11-28T05:33:03.874Z,1026.32
2018-11-28T05:34:03.835Z,1026.31
2018-11-28T05:35:03.797Z,1026.34
2018-11-28T05:36:03.761Z,1026.35
2018-11-28T05:37:03.719Z,1026.33
2018-11-28T05:38:03.682Z,1026.36
2018-11-28T05:39:03.644Z,1026.31
2018-11-28T05:40:03.606Z,1026.34
2018-11-28T05:41:03.568Z,1026.29
2018-11-28T05:42:03.529Z,1026.25
2018-11-28T05:43:03.494Z,1026.24
2018-11-28T05:44:03.455Z,1026.25
2018-11-28T05:45:03.415Z,1026.23
2018-11-28T05:46:03.378Z,1026.27
2018-11-28T05:47:03.339Z,1026.30
2018-11-28T05:48:03.301Z,1026.27
2018-11-28T05:49:03.261Z,1026.28
2018-11-28T05:50:03.223Z,1026.24
2018-11-28T05:51:03.186Z,1026.25
2018-11-28T05:52:03.148Z,1026.25
2018-11-28T05:53:03.110Z,1026.16
2018-11-28T05:54:03.071Z,1026.18
2018-11-28T05:55:03.040Z,1026.17
2018-11-28T05:56:02.996Z,1026.12
2018-11-28T05:57:02.957Z,1026.16
2018-11-28T05:58:02.919Z,1026.11
2018-11-28T05:59:03.503Z,1026.16
2018-11-28T06:00:02.842Z,1026.19
2018-11-28T06:01:02.804Z,1026.18
2018-11-28T06:02:02.764Z,1026.18
2018-11-28T06:03:02.727Z,1026.16
2018-11-28T06:04:02.688Z,1026.11
2018-11-28T06:05:02.648Z,1026.09
2018-11-28T06:06:02.612Z,1026.14
2018-11-28T06:07:02.573Z,1026.12
2018-11-28T06:08:02.535Z,1026.09
2018-11-28T06:09:02.496Z,1026.17
2018-11-28T06:10:02.457Z,1026.20
2018-11-28T06:11:02.420Z,1026.22
2018-11-28T06:12:02.389Z,1026.26
2018-11-28T06:13:02.343Z,1026.25
2018-11-28T06:14:02.305Z,1026.30
2018-11-28T06:15:02.267Z,1026.29
2018-11-28T06:16:02.229Z,1026.32
2018-11-28T06:17:02.249Z,1026.35
2018-11-28T06:18:02.153Z,1026.38
2018-11-28T06:19:02.112Z,1026.39
2018-11-28T06:20:02.073Z,1026.44
2018-11-28T06:21:02.033Z,1026.47
2018-11-28T06:22:01.996Z,1026.47
2018-11-28T06:23:01.957Z,1026.48
2018-11-28T06:24:01.917Z,1026.47
2018-11-28T06:25:01.883Z,1026.49
2018-11-28T06:26:01.840Z,1026.50
2018-11-28T06:27:01.800Z,1026.54
2018-11-28T06:28:01.762Z,1026.55
2018-11-28T06:29:01.725Z,1026.54
2018-11-28T06:30:01.690Z,1026.53
2018-11-28T06:31:01.647Z,1026.50
2018-11-28T06:32:01.610Z,1026.45
2018-11-28T06:33:01.569Z,1026.46
2018-11-28T06:34:01.531Z,1026.42
2018-11-28T06:35:01.493Z,1026.43
2018-11-28T06:36:01.454Z,1026.44
2018-11-28T06:37:01.417Z,1026.46
2018-11-28T06:38:01.376Z,1026.42
2018-11-28T06:39:01.336Z,1026.41
2018-11-28T06:40:01.299Z,1026.44
2018-11-28T06:41:01.258Z,1026.42
2018-11-28T06:42:01.221Z,1026.47
2018-11-28T06:43:01.183Z,1026.49
2018-11-28T06:44:01.144Z,1026.51
2018-11-28T06:45:01.103Z,1026.53
2018-11-28T06:46:01.064Z,1026.53
2018-11-28T06:47:01.028Z,1026.56
2018-11-28T06:48:00.988Z,1026.55
2018-11-28T06:49:00.949Z,1026.56
2018-11-28T06:50:00.916Z,1026.54
2018-11-28T06:51:00.871Z,1026.55
2018-11-28T06:52:00.834Z,1026.54
2018-11-28T06:53:00.796Z,1026.53
2018-11-28T06:54:00.761Z,1026.52
2018-11-28T06:55:00.715Z,1026.54
2018-11-28T06:56:00.678Z,1026.58
2018-11-28T06:57:00.637Z,1026.57
2018-11-28T06:58:00.599Z,1026.57
2018-11-28T06:59:00.563Z,1026.63
2018-11-28T07:00:00.522Z,1026.65
2018-11-28T07:01:00.483Z,1026.66
2018-11-28T07:02:00.445Z,1026.66
2018-11-28T07:03:00.405Z,1026.69
2018-11-28T07:04:00.367Z,1026.72
2018-11-28T07:05:00.328Z,1026.73
2018-11-28T07:06:00.288Z,1026.70
2018-11-28T07:07:00.250Z,1026.74
2018-11-28T07:08:00.210Z,1026.71
2018-11-28T07:09:00.172Z,1026.71
2018-11-28T07:10:00.132Z,1026.71
2018-11-28T07:11:00.096Z,1026.75
2018-11-28T07:12:00.056Z,1026.71
2018-11-28T07:13:00.017Z,1026.73
2018-11-28T07:13:59.976Z,1026.72
2018-11-28T07:14:59.939Z,1026.74
2018-11-28T07:15:59.899Z,1026.76
2018-11-28T07:16:59.860Z,1026.79
2018-11-28T07:17:59.822Z,1026.83
2018-11-28T07:18:59.783Z,1026.81
2018-11-28T07:19:59.745Z,1026.87
2018-11-28T07:20:59.703Z,1026.85
2018-11-28T07:21:59.668Z,1026.88
2018-11-28T07:22:59.630Z,1026.86
2018-11-28T07:23:59.588Z,1026.86
2018-11-28T07:24:59.548Z,1026.86
2018-11-28T07:25:59.510Z,1026.88
2018-11-28T07:26:59.473Z,1026.89
2018-11-28T07:27:59.435Z,1026.90
2018-11-28T07:28:59.396Z,1026.90
2018-11-28T07:29:59.355Z,1026.89
2018-11-28T07:30:59.318Z,1026.88
2018-11-28T07:31:59.279Z,1026.85
2018-11-28T07:32:59.242Z,1026.88
2018-11-28T07:33:59.199Z,1026.85
2018-11-28T07:34:59.163Z,1026.85
2018-11-28T07:35:59.126Z,1026.87
2018-11-28T07:36:59.083Z,1026.87
2018-11-28T07:37:59.045Z,1026.86
2018-11-28T07:38:59.008Z,1026.88
2018-11-28T07:39:58.968Z,1026.87
2018-11-28T07:40:58.927Z,1026.87
2018-11-28T07:41:58.890Z,1026.88
2018-11-28T07:42:58.851Z,1026.91
2018-11-28T07:43:58.812Z,1026.88
2018-11-28T07:44:58.773Z,1026.85
2018-11-28T07:45:58.734Z,1026.89
2018-11-28T07:46:58.696Z,1026.91
2018-11-28T07:47:58.658Z,1026.89
2018-11-28T07:48:58.619Z,1026.88
2018-11-28T07:49:58.582Z,1026.88
2018-11-28T07:50:58.542Z,1026.89
2018-11-28T07:51:58.505Z,1026.84
2018-11-28T07:52:58.464Z,1026.88
2018-11-28T07:53:58.486Z,1026.88
2018-11-28T07:54:58.388Z,1026.94
2018-11-28T07:55:58.349Z,1026.95
2018-11-28T07:56:58.312Z,1026.97
2018-11-28T07:57:58.272Z,1026.97
2018-11-28T07:58:58.235Z,1026.97
2018-11-28T07:59:58.199Z,1026.93
2018-11-28T08:00:58.158Z,1026.95
2018-11-28T08:01:58.119Z,1026.96
2018-11-28T08:02:58.088Z,1026.91
2018-11-28T08:03:58.045Z,1026.97
2018-11-28T08:04:58.005Z,1026.96
2018-11-28T08:05:57.970Z,1026.96
2018-11-28T08:06:57.931Z,1027.00
2018-11-28T08:07:57.893Z,1026.95
2018-11-28T08:08:57.853Z,1026.97
2018-11-28T08:09:57.818Z,1027.01
2018-11-28T08:10:57.780Z,1027.02
2018-11-28T08:11:57.742Z,1027.00
2018-11-28T08:12:57.704Z,1026.96
2018-11-28T08:13:57.666Z,1027.00
2018-11-28T08:14:57.629Z,1027.01
2018-11-28T08:15:57.594Z,1027.00
2018-11-28T08:16:57.555Z,1026.96
2018-11-28T08:17:57.516Z,1026.96
2018-11-28T08:18:57.480Z,1027.03
2018-11-28T08:19:57.441Z,1027.01
2018-11-28T08:20:57.403Z,1026.99
2018-11-28T08:21:57.371Z,1026.99
2018-11-28T08:22:57.330Z,1027.02
2018-11-28T08:23:57.293Z,1026.96
2018-11-28T08:24:57.258Z,1026.98
2018-11-28T08:25:57.223Z,1027.00
2018-11-28T08:26:57.183Z,1026.99
2018-11-28T08:27:57.262Z,1027.00
2018-11-28T08:28:57.109Z,1027.01
2018-11-28T08:29:57.071Z,1026.98
2018-11-28T08:30:57.034Z,1027.02
2018-11-28T08:31:57.000Z,1026.96
2018-11-28T08:32:56.964Z,1026.99
2018-11-28T08:33:56.925Z,1026.93
2018-11-28T08:34:56.890Z,1026.94
2018-11-28T08:35:56.852Z,1026.95
2018-11-28T08:36:56.815Z,1026.90
2018-11-28T08:37:56.779Z,1026.96
2018-11-28T08:38:56.747Z,1026.96
2018-11-28T08:39:56.706Z,1026.94
2018-11-28T08:40:56.668Z,1026.91
2018-11-28T08:41:56.633Z,1026.94
2018-11-28T08:42:56.598Z,1026.94
2018-11-28T08:43:56.561Z,1026.91
2018-11-28T08:44:56.525Z,1026.97
2018-11-28T08:45:56.489Z,1026.97
2018-11-28T08:46:56.454Z,1026.95
2018-11-28T08:47:56.417Z,1026.99
2018-11-28T08:48:56.382Z,1027.05
2018-11-28T08:49:56.594Z,1027.03
2018-11-28T08:50:56.315Z,1027.03
2018-11-28T08:51:56.276Z,1027.01
2018-11-28T08:52:56.238Z,1027.01
2018-11-28T08:53:56.203Z,1027.00
2018-11-28T08:54:56.168Z,1027.02
2018-11-28T08:55:56.131Z,1027.09
2018-11-28T08:56:56.097Z,1027.00
2018-11-28T08:57:56.061Z,1027.01
2018-11-28T08:58:56.080Z,1027.04
2018-11-28T08:59:55.992Z,1027.00
2018-11-28T09:00:55.957Z,1026.98
2018-11-28T09:01:55.920Z,1026.95
2018-11-28T09:02:55.886Z,1026.99
2018-11-28T09:03:55.851Z,1026.93
2018-11-28T09:04:55.817Z,1026.99
2018-11-28T09:05:55.780Z,1027.03
2018-11-28T09:06:55.745Z,1027.06
2018-11-28T09:07:55.712Z,1027.06
2018-11-28T09:08:55.674Z,1027.06
2018-11-28T09:09:55.641Z,1027.07
2018-11-28T09:10:55.607Z,1027.13
2018-11-28T09:11:55.570Z,1027.09
2018-11-28T09:12:55.533Z,1027.17
2018-11-28T09:13:55.502Z,1027.22
2018-11-28T09:14:55.465Z,1027.20
2018-11-28T09:15:55.431Z,1027.18
2018-11-28T09:16:55.396Z,1027.23
2018-11-28T09:17:55.360Z,1027.24
2018-11-28T09:18:55.326Z,1027.28
2018-11-28T09:19:55.292Z,1027.22
2018-11-28T09:20:55.254Z,1027.25
2018-11-28T09:21:55.220Z,1027.21
2018-11-28T09:22:55.186Z,1027.22
2018-11-28T09:23:55.151Z,1027.20
2018-11-28T09:24:55.114Z,1027.21
2018-11-28T09:25:55.089Z,1027.16
2018-11-28T09:26:55.045Z,1027.19
2018-11-28T09:27:55.013Z,1027.20
2018-11-28T09:28:54.976Z,1027.24
2018-11-28T09:29:54.941Z,1027.22
2018-11-28T09:30:54.907Z,1027.26
2018-11-28T09:31:54.870Z,1027.22
2018-11-28T09:32:54.844Z,1027.23
2018-11-28T09:33:54.804Z,1027.22
2018-11-28T09:34:54.767Z,1027.22
2018-11-28T09:35:54.731Z,1027.10
2018-11-28T09:36:54.697Z,1027.12
2018-11-28T09:37:54.661Z,1027.14
2018-11-28T09:38:54.626Z,1027.12
2018-11-28T09:39:54.593Z,1027.12
2018-11-28T09:40:54.557Z,1027.15
2018-11-28T09:41:54.523Z,1027.14
2018-11-28T09:42:54.489Z,1027.10
2018-11-28T09:43:54.453Z,1027.07
2018-11-28T09:44:54.420Z,1027.07
2018-11-28T09:45:54.385Z,1027.10
2018-11-28T09:46:54.349Z,1027.11
2018-11-28T09:47:54.316Z,1027.16
2018-11-28T09:48:54.280Z,1027.16
2018-11-28T09:49:54.245Z,1027.17
2018-11-28T09:50:54.210Z,1027.13
2018-11-28T09:51:54.177Z,1027.16
2018-11-28T09:52:54.141Z,1027.18
2018-11-28T09:53:54.106Z,1027.21
2018-11-28T09:54:54.071Z,1027.20
2018-11-28T09:55:54.039Z,1027.15
2018-11-28T09:56:54.003Z,1027.18
2018-11-28T09:57:53.967Z,1027.16
2018-11-28T09:58:53.934Z,1027.07
2018-11-28T09:59:53.901Z,1027.03
2018-11-28T10:00:53.864Z,1027.01
2018-11-28T10:01:53.831Z,1027.04
2018-11-28T10:02:53.797Z,1027.00
2018-11-28T10:03:53.761Z,1026.98
2018-11-28T10:04:53.727Z,1026.91
2018-11-28T10:05:53.694Z,1027.00
2018-11-28T10:06:53.658Z,1026.99
2018-11-28T10:07:53.625Z,1026.94
2018-11-28T10:08:53.592Z,1026.94
2018-11-28T10:09:53.556Z,1026.90
2018-11-28T10:10:53.522Z,1026.94
2018-11-28T10:11:53.486Z,1026.92
2018-11-28T10:12:53.452Z,1026.89
2018-11-28T10:13:53.417Z,1026.88
2018-11-28T10:14:53.385Z,1026.83
2018-11-28T10:15:53.349Z,1026.86
2018-11-28T10:16:53.775Z,1026.81
2018-11-28T10:17:53.286Z,1026.76
2018-11-28T10:18:53.246Z,1026.75
2018-11-28T10:19:53.211Z,1026.76
2018-11-28T10:20:53.176Z,1026.74
2018-11-28T10:21:53.143Z,1026.81
2018-11-28T10:22:53.109Z,1026.77
2018-11-28T10:23:53.075Z,1026.70
2018-11-28T10:24:53.040Z,1026.67
2018-11-28T10:25:53.004Z,1026.75
2018-11-28T10:26:52.970Z,1026.67
2018-11-28T10:27:52.937Z,1026.71
2018-11-28T10:28:52.912Z,1026.67
2018-11-28T10:29:52.866Z,1026.67
2018-11-28T10:30:52.833Z,1026.64
2018-11-28T10:31:52.798Z,1026.67
2018-11-28T10:32:52.764Z,1026.65
2018-11-28T10:33:52.728Z,1026.62
2018-11-28T10:34:52.691Z,1026.67
2018-11-28T10:35:52.661Z,1026.65
2018-11-28T10:36:52.624Z,1026.59
2018-11-28T10:37:52.590Z,1026.61
2018-11-28T10:38:52.554Z,1026.61
2018-11-28T10:39:52.520Z,1026.67
2018-11-28T10:40:52.485Z,1026.67
2018-11-28T10:41:52.450Z,1026.64
2018-11-28T10:42:52.417Z,1026.68
2018-11-28T10:43:52.382Z,1026.66
2018-11-28T10:44:52.346Z,1026.65
2018-11-28T10:45:52.314Z,1026.59
2018-11-28T10:46:52.280Z,1026.56
2018-11-28T10:47:52.243Z,1026.58
2018-11-28T10:48:52.209Z,1026.51
2018-11-28T10:49:52.175Z,1026.53
2018-11-28T10:50:52.140Z,1026.54
2018-11-28T10:51:52.106Z,1026.57
2018-11-28T10:52:52.075Z,1026.52
2018-11-28T10:53:52.036Z,1026.56
2018-11-28T10:54:52.002Z,1026.59
2018-11-28T10:55:51.966Z,1026.55
2018-11-28T10:56:51.932Z,1026.63
2018-11-28T10:57:51.900Z,1026.59
2018-11-28T10:58:51.864Z,1026.60
2018-11-28T10:59:51.829Z,1026.60
2018-11-28T11:00:51.794Z,1026.59
2018-11-28T11:01:51.770Z,1026.60
2018-11-28T11:02:51.724Z,1026.64
2018-11-28T11:03:51.690Z,1026.62
2018-11-28T11:04:51.655Z,1026.52
2018-11-28T11:05:51.620Z,1026.57
2018-11-28T11:06:51.587Z,1026.52
2018-11-28T11:07:51.551Z,1026.55
2018-11-28T11:08:51.515Z,1026.56
2018-11-28T11:09:51.480Z,1026.56
2018-11-28T11:10:51.448Z,1026.53
2018-11-28T11:11:51.410Z,1026.60
2018-11-28T11:12:51.377Z,1026.58
2018-11-28T11:13:51.341Z,1026.61
2018-11-28T11:14:51.309Z,1026.63
2018-11-28T11:15:51.273Z,1026.59
2018-11-28T11:16:51.236Z,1026.64
2018-11-28T11:17:51.201Z,1026.63
2018-11-28T11:18:51.166Z,1026.62
2018-11-28T11:19:51.130Z,1026.56
2018-11-28T11:20:51.095Z,1026.59
2018-11-28T11:21:51.058Z,1026.58
2018-11-28T11:22:51.024Z,1026.56
2018-11-28T11:23:50.990Z,1026.55
2018-11-28T11:24:50.953Z,1026.51
2018-11-28T11:25:50.918Z,1026.54
2018-11-28T11:26:50.883Z,1026.49
2018-11-28T11:27:50.847Z,1026.52
2018-11-28T11:28:50.812Z,1026.53
2018-11-28T11:29:50.778Z,1026.49
2018-11-28T11:30:50.743Z,1026.49
2018-11-28T11:31:50.707Z,1026.48
2018-11-28T11:32:50.671Z,1026.40
2018-11-28T11:33:50.637Z,1026.46
2018-11-28T11:34:50.600Z,1026.46
2018-11-28T11:35:50.567Z,1026.40
2018-11-28T11:36:50.529Z,1026.44
2018-11-28T11:37:50.495Z,1026.47
2018-11-28T11:38:50.460Z,1026.44
2018-11-28T11:39:50.425Z,1026.39
2018-11-28T11:40:50.389Z,1026.42
2018-11-28T11:41:50.359Z,1026.44
2018-11-28T11:42:50.318Z,1026.41
2018-11-28T11:43:50.284Z,1026.37
2018-11-28T11:44:50.247Z,1026.47
2018-11-28T11:45:50.217Z,1026.33
2018-11-28T11:46:50.178Z,1026.32
2018-11-28T11:47:50.149Z,1026.28
2018-11-28T11:48:50.105Z,1026.31
2018-11-28T11:49:50.078Z,1026.26
2018-11-28T11:50:50.036Z,1026.29
2018-11-28T11:51:50.002Z,1026.30
2018-11-28T11:52:49.964Z,1026.29
2018-11-28T11:53:49.929Z,1026.25
2018-11-28T11:54:49.894Z,1026.29
2018-11-28T11:55:49.858Z,1026.20
2018-11-28T11:56:49.849Z,1026.20
2018-11-28T11:57:49.792Z,1026.18
2018-11-28T11:58:49.753Z,1026.18
2018-11-28T11:59:49.717Z,1026.15
2018-11-28T12:00:49.680Z,1026.14
2018-11-28T12:01:54.713Z,1026.11
2018-11-28T12:02:49.613Z,1026.15
2018-11-28T12:03:49.578Z,1026.14
2018-11-28T12:04:49.539Z,1026.13